sensor_id;sensor_type;location;lat;lon;timestamp;temperature;humidity
19945;DHT22;10134;50.952;6.930;2023-02-24T00:01:57;9.50;99.90
19945;DHT22;10134;50.952;6.930;2023-02-24T00:04:30;9.50;99.90
19945;DHT22;10134;50.952;6.930;2023-02-24T00:06:58;9.50;99.90
19945;DHT22;10134;50.952;6.930;2023-02-24T00:09:28;9.50;99.90
19945;DHT22;10134;50.952;6.930;2023-02-24T00:12:05;9.40;99.90
19945;DHT22;10134;50.952;6.930;2023-02-24T00:14:37;9.50;99.90
19945;DHT22;10134;50.952;6.930;2023-02-24T00:17:05;9.50;99.90
19945;DHT22;10134;50.952;6.930;2023-02-24T00:19:36;9.40;99.90
19945;DHT22;10134;50.952;6.930;2023-02-24T00:22:06;9.40;99.90
19945;DHT22;10134;50.952;6.930;2023-02-24T00:24:35;9.40;99.90
19945;DHT22;10134;50.952;6.930;2023-02-24T00:27:04;9.40;99.90
19945;DHT22;10134;50.952;6.930;2023-02-24T00:29:35;9.40;99.90
19945;DHT22;10134;50.952;6.930;2023-02-24T00:32:06;9.40;99.90
19945;DHT22;10134;50.952;6.930;2023-02-24T00:34:39;9.30;99.90
19945;DHT22;10134;50.952;6.930;2023-02-24T00:37:06;9.30;99.90
19945;DHT22;10134;50.952;6.930;2023-02-24T00:39:34;9.30;99.90
19945;DHT22;10134;50.952;6.930;2023-02-24T00:42:04;9.30;99.90
19945;DHT22;10134;50.952;6.930;2023-02-24T00:44:45;9.20;99.90
19945;DHT22;10134;50.952;6.930;2023-02-24T00:47:15;9.20;99.90
19945;DHT22;10134;50.952;6.930;2023-02-24T00:49:42;9.10;99.90
19945;DHT22;10134;50.952;6.930;2023-02-24T00:52:13;9.20;99.90
19945;DHT22;10134;50.952;6.930;2023-02-24T00:54:42;9.10;99.90
19945;DHT22;10134;50.952;6.930;2023-02-24T00:57:10;9.00;99.90
19945;DHT22;10134;50.952;6.930;2023-02-24T00:59:38;9.10;99.90
19945;DHT22;10134;50.952;6.930;2023-02-24T01:02:06;9.00;99.90
19945;DHT22;10134;50.952;6.930;2023-02-24T01:04:34;9.00;99.90
19945;DHT22;10134;50.952;6.930;2023-02-24T01:07:06;9.00;99.90
19945;DHT22;10134;50.952;6.930;2023-02-24T01:09:38;9.00;99.90
19945;DHT22;10134;50.952;6.930;2023-02-24T01:12:08;9.00;99.90
19945;DHT22;10134;50.952;6.930;2023-02-24T01:15:05;9.00;99.90
19945;DHT22;10134;50.952;6.930;2023-02-24T01:17:35;9.00;99.90
19945;DHT22;10134;50.952;6.930;2023-02-24T01:20:06;9.00;99.90
19945;DHT22;10134;50.952;6.930;2023-02-24T01:22:48;9.00;99.90
19945;DHT22;10134;50.952;6.930;2023-02-24T01:25:16;9.00;99.90
19945;DHT22;10134;50.952;6.930;2023-02-24T01:27:46;8.90;99.90
19945;DHT22;10134;50.952;6.930;2023-02-24T01:30:14;8.90;99.90
19945;DHT22;10134;50.952;6.930;2023-02-24T01:32:43;8.80;99.90
19945;DHT22;10134;50.952;6.930;2023-02-24T01:35:10;8.80;99.90
19945;DHT22;10134;50.952;6.930;2023-02-24T01:37:38;8.80;99.90
19945;DHT22;10134;50.952;6.930;2023-02-24T01:40:09;8.80;99.90
19945;DHT22;10134;50.952;6.930;2023-02-24T01:42:44;8.80;99.90
19945;DHT22;10134;50.952;6.930;2023-02-24T01:45:17;8.80;99.90
19945;DHT22;10134;50.952;6.930;2023-02-24T01:47:45;8.80;99.90
19945;DHT22;10134;50.952;6.930;2023-02-24T01:50:14;8.80;99.90
19945;DHT22;10134;50.952;6.930;2023-02-24T01:52:44;8.80;99.90
19945;DHT22;10134;50.952;6.930;2023-02-24T01:55:22;8.80;99.90
19945;DHT22;10134;50.952;6.930;2023-02-24T01:57:52;8.70;99.90
19945;DHT22;10134;50.952;6.930;2023-02-24T02:00:20;8.80;99.90
19945;DHT22;10134;50.952;6.930;2023-02-24T02:05:44;8.70;99.90
19945;DHT22;10134;50.952;6.930;2023-02-24T02:08:16;8.70;99.90
19945;DHT22;10134;50.952;6.930;2023-02-24T02:10:44;8.70;99.90
19945;DHT22;10134;50.952;6.930;2023-02-24T02:13:15;8.60;99.90
19945;DHT22;10134;50.952;6.930;2023-02-24T02:19:07;8.60;99.90
19945;DHT22;10134;50.952;6.930;2023-02-24T02:27:07;8.60;99.90
19945;DHT22;10134;50.952;6.930;2023-02-24T02:35:24;8.60;99.90
19945;DHT22;10134;50.952;6.930;2023-02-24T02:37:59;8.60;99.90
19945;DHT22;10134;50.952;6.930;2023-02-24T02:40:38;8.50;99.90
19945;DHT22;10134;50.952;6.930;2023-02-24T02:48:43;8.60;99.90
19945;DHT22;10134;50.952;6.930;2023-02-24T02:51:17;8.50;99.90
19945;DHT22;10134;50.952;6.930;2023-02-24T02:54:00;8.50;99.90
19945;DHT22;10134;50.952;6.930;2023-02-24T02:56:45;8.60;99.90
19945;DHT22;10134;50.952;6.930;2023-02-24T02:59:17;8.50;99.90
19945;DHT22;10134;50.952;6.930;2023-02-24T03:01:50;8.50;99.90
19945;DHT22;10134;50.952;6.930;2023-02-24T03:04:23;8.50;99.90
19945;DHT22;10134;50.952;6.930;2023-02-24T03:06:56;8.50;99.90
19945;DHT22;10134;50.952;6.930;2023-02-24T03:09:33;8.40;99.90
19945;DHT22;10134;50.952;6.930;2023-02-24T03:12:05;8.40;99.90
19945;DHT22;10134;50.952;6.930;2023-02-24T03:14:37;8.30;99.90
19945;DHT22;10134;50.952;6.930;2023-02-24T03:17:11;8.30;99.90
19945;DHT22;10134;50.952;6.930;2023-02-24T03:19:42;8.30;99.90
19945;DHT22;10134;50.952;6.930;2023-02-24T03:22:21;8.30;99.90
19945;DHT22;10134;50.952;6.930;2023-02-24T03:24:51;8.30;99.90
19945;DHT22;10134;50.952;6.930;2023-02-24T03:27:30;8.30;99.90
19945;DHT22;10134;50.952;6.930;2023-02-24T03:30:05;8.30;99.90
19945;DHT22;10134;50.952;6.930;2023-02-24T03:32:46;8.30;99.90
19945;DHT22;10134;50.952;6.930;2023-02-24T03:35:28;8.30;99.90
19945;DHT22;10134;50.952;6.930;2023-02-24T03:37:56;8.30;99.90
19945;DHT22;10134;50.952;6.930;2023-02-24T03:40:25;8.20;99.90
19945;DHT22;10134;50.952;6.930;2023-02-24T03:43:07;8.20;99.90
19945;DHT22;10134;50.952;6.930;2023-02-24T03:45:38;8.10;99.90
19945;DHT22;10134;50.952;6.930;2023-02-24T03:48:07;8.10;99.90
19945;DHT22;10134;50.952;6.930;2023-02-24T03:50:36;8.10;99.90
19945;DHT22;10134;50.952;6.930;2023-02-24T04:04:35;8.00;99.90
19945;DHT22;10134;50.952;6.930;2023-02-24T04:07:39;7.80;99.90
19945;DHT22;10134;50.952;6.930;2023-02-24T04:10:15;7.80;99.90
19945;DHT22;10134;50.952;6.930;2023-02-24T04:13:15;7.80;99.90
19945;DHT22;10134;50.952;6.930;2023-02-24T04:15:51;7.90;99.90
19945;DHT22;10134;50.952;6.930;2023-02-24T04:18:28;7.80;99.90
19945;DHT22;10134;50.952;6.930;2023-02-24T04:20:59;7.90;99.90
19945;DHT22;10134;50.952;6.930;2023-02-24T04:23:31;7.80;99.90
19945;DHT22;10134;50.952;6.930;2023-02-24T04:26:00;7.80;99.90
19945;DHT22;10134;50.952;6.930;2023-02-24T04:28:29;7.80;99.90
19945;DHT22;10134;50.952;6.930;2023-02-24T04:31:03;7.80;99.90
19945;DHT22;10134;50.952;6.930;2023-02-24T04:33:34;7.70;99.90
19945;DHT22;10134;50.952;6.930;2023-02-24T04:36:02;7.70;99.90
19945;DHT22;10134;50.952;6.930;2023-02-24T04:38:34;7.70;99.90
19945;DHT22;10134;50.952;6.930;2023-02-24T04:41:02;7.70;99.90
19945;DHT22;10134;50.952;6.930;2023-02-24T04:43:30;7.70;99.90
19945;DHT22;10134;50.952;6.930;2023-02-24T04:45:58;7.70;99.90
19945;DHT22;10134;50.952;6.930;2023-02-24T04:48:26;7.60;99.90
19945;DHT22;10134;50.952;6.930;2023-02-24T04:50:59;7.50;99.90
19945;DHT22;10134;50.952;6.930;2023-02-24T04:53:29;7.50;99.90
19945;DHT22;10134;50.952;6.930;2023-02-24T04:56:01;7.50;99.90
19945;DHT22;10134;50.952;6.930;2023-02-24T04:58:38;7.40;99.90
19945;DHT22;10134;50.952;6.930;2023-02-24T05:01:08;7.40;99.90
19945;DHT22;10134;50.952;6.930;2023-02-24T05:03:38;7.40;99.90
19945;DHT22;10134;50.952;6.930;2023-02-24T05:06:16;7.40;99.90
19945;DHT22;10134;50.952;6.930;2023-02-24T05:08:43;7.40;99.90
19945;DHT22;10134;50.952;6.930;2023-02-24T05:11:13;7.40;99.90
19945;DHT22;10134;50.952;6.930;2023-02-24T05:13:42;7.30;99.90
19945;DHT22;10134;50.952;6.930;2023-02-24T05:16:16;7.40;99.90
19945;DHT22;10134;50.952;6.930;2023-02-24T05:18:44;7.20;99.90
19945;DHT22;10134;50.952;6.930;2023-02-24T05:21:13;7.30;99.90
19945;DHT22;10134;50.952;6.930;2023-02-24T05:24:00;7.20;99.90
19945;DHT22;10134;50.952;6.930;2023-02-24T05:26:35;7.30;99.90
19945;DHT22;10134;50.952;6.930;2023-02-24T05:29:04;7.20;99.90
19945;DHT22;10134;50.952;6.930;2023-02-24T05:31:33;7.10;99.90
19945;DHT22;10134;50.952;6.930;2023-02-24T05:34:03;7.10;99.90
19945;DHT22;10134;50.952;6.930;2023-02-24T05:36:33;7.10;99.90
19945;DHT22;10134;50.952;6.930;2023-02-24T05:39:01;7.20;99.90
19945;DHT22;10134;50.952;6.930;2023-02-24T05:41:35;7.00;99.90
19945;DHT22;10134;50.952;6.930;2023-02-24T05:44:07;7.00;99.90
19945;DHT22;10134;50.952;6.930;2023-02-24T05:46:39;7.00;99.90
19945;DHT22;10134;50.952;6.930;2023-02-24T05:49:19;7.00;99.90
19945;DHT22;10134;50.952;6.930;2023-02-24T05:52:04;7.10;99.90
19945;DHT22;10134;50.952;6.930;2023-02-24T05:54:38;7.10;99.90
19945;DHT22;10134;50.952;6.930;2023-02-24T05:57:12;7.00;99.90
19945;DHT22;10134;50.952;6.930;2023-02-24T05:59:40;7.00;99.90
19945;DHT22;10134;50.952;6.930;2023-02-24T06:02:10;7.10;99.90
19945;DHT22;10134;50.952;6.930;2023-02-24T06:04:41;7.00;99.90
19945;DHT22;10134;50.952;6.930;2023-02-24T06:07:25;7.10;99.90
19945;DHT22;10134;50.952;6.930;2023-02-24T06:09:55;7.00;99.90
19945;DHT22;10134;50.952;6.930;2023-02-24T06:12:28;7.00;99.90
19945;DHT22;10134;50.952;6.930;2023-02-24T06:14:56;7.00;99.90
19945;DHT22;10134;50.952;6.930;2023-02-24T06:17:27;7.00;99.90
19945;DHT22;10134;50.952;6.930;2023-02-24T06:19:55;6.80;99.90
19945;DHT22;10134;50.952;6.930;2023-02-24T06:22:24;6.70;99.90
19945;DHT22;10134;50.952;6.930;2023-02-24T06:24:53;6.70;99.90
19945;DHT22;10134;50.952;6.930;2023-02-24T06:27:21;6.70;99.90
19945;DHT22;10134;50.952;6.930;2023-02-24T06:29:52;6.70;99.90
19945;DHT22;10134;50.952;6.930;2023-02-24T06:32:23;6.70;99.90
19945;DHT22;10134;50.952;6.930;2023-02-24T06:34:51;6.60;99.90
19945;DHT22;10134;50.952;6.930;2023-02-24T06:37:20;6.70;99.90
19945;DHT22;10134;50.952;6.930;2023-02-24T06:39:48;6.60;99.90
19945;DHT22;10134;50.952;6.930;2023-02-24T06:42:16;6.70;99.90
19945;DHT22;10134;50.952;6.930;2023-02-24T06:44:47;6.70;99.90
19945;DHT22;10134;50.952;6.930;2023-02-24T06:47:14;6.70;99.90
19945;DHT22;10134;50.952;6.930;2023-02-24T06:49:43;6.60;99.90
19945;DHT22;10134;50.952;6.930;2023-02-24T06:52:11;6.70;99.90
19945;DHT22;10134;50.952;6.930;2023-02-24T06:54:47;6.70;99.90
19945;DHT22;10134;50.952;6.930;2023-02-24T06:57:14;6.70;99.90
19945;DHT22;10134;50.952;6.930;2023-02-24T06:59:41;6.70;99.90
19945;DHT22;10134;50.952;6.930;2023-02-24T07:02:09;6.70;99.90
19945;DHT22;10134;50.952;6.930;2023-02-24T07:04:36;6.70;99.90
19945;DHT22;10134;50.952;6.930;2023-02-24T07:07:10;6.80;99.90
19945;DHT22;10134;50.952;6.930;2023-02-24T07:09:40;6.80;99.90
19945;DHT22;10134;50.952;6.930;2023-02-24T07:12:09;6.80;99.90
19945;DHT22;10134;50.952;6.930;2023-02-24T07:14:37;6.80;99.90
19945;DHT22;10134;50.952;6.930;2023-02-24T07:17:06;6.90;99.90
19945;DHT22;10134;50.952;6.930;2023-02-24T07:19:34;6.90;99.90
19945;DHT22;10134;50.952;6.930;2023-02-24T07:22:03;6.90;99.90
19945;DHT22;10134;50.952;6.930;2023-02-24T07:24:35;6.90;99.90
19945;DHT22;10134;50.952;6.930;2023-02-24T07:27:06;7.00;99.90
19945;DHT22;10134;50.952;6.930;2023-02-24T07:29:35;7.00;99.90
19945;DHT22;10134;50.952;6.930;2023-02-24T07:32:07;7.00;99.90
19945;DHT22;10134;50.952;6.930;2023-02-24T07:34:36;7.10;99.90
19945;DHT22;10134;50.952;6.930;2023-02-24T07:37:08;7.10;99.90
19945;DHT22;10134;50.952;6.930;2023-02-24T07:39:37;7.10;99.90
19945;DHT22;10134;50.952;6.930;2023-02-24T07:42:07;7.10;99.90
19945;DHT22;10134;50.952;6.930;2023-02-24T07:44:43;7.10;99.90
19945;DHT22;10134;50.952;6.930;2023-02-24T07:47:12;7.10;99.90
19945;DHT22;10134;50.952;6.930;2023-02-24T07:49:41;7.10;99.90
19945;DHT22;10134;50.952;6.930;2023-02-24T07:52:09;7.10;99.90
19945;DHT22;10134;50.952;6.930;2023-02-24T07:54:37;7.10;99.90
19945;DHT22;10134;50.952;6.930;2023-02-24T07:57:06;7.20;99.90
19945;DHT22;10134;50.952;6.930;2023-02-24T07:59:40;7.20;99.90
19945;DHT22;10134;50.952;6.930;2023-02-24T08:02:13;7.20;99.90
19945;DHT22;10134;50.952;6.930;2023-02-24T08:04:40;7.20;99.90
19945;DHT22;10134;50.952;6.930;2023-02-24T08:07:15;7.20;99.90
19945;DHT22;10134;50.952;6.930;2023-02-24T08:09:42;7.30;99.90
19945;DHT22;10134;50.952;6.930;2023-02-24T08:12:15;7.30;99.90
19945;DHT22;10134;50.952;6.930;2023-02-24T08:14:45;7.30;99.90
19945;DHT22;10134;50.952;6.930;2023-02-24T08:17:22;7.20;99.90
19945;DHT22;10134;50.952;6.930;2023-02-24T08:19:51;7.30;99.90
19945;DHT22;10134;50.952;6.930;2023-02-24T08:22:38;7.30;99.90
19945;DHT22;10134;50.952;6.930;2023-02-24T08:25:11;7.40;99.90
19945;DHT22;10134;50.952;6.930;2023-02-24T08:27:46;7.40;99.90
19945;DHT22;10134;50.952;6.930;2023-02-24T08:30:35;7.50;99.90
19945;DHT22;10134;50.952;6.930;2023-02-24T08:33:09;7.40;99.90
19945;DHT22;10134;50.952;6.930;2023-02-24T08:35:38;7.50;99.90
19945;DHT22;10134;50.952;6.930;2023-02-24T08:38:12;7.50;99.90
19945;DHT22;10134;50.952;6.930;2023-02-24T08:40:47;7.60;99.90
19945;DHT22;10134;50.952;6.930;2023-02-24T08:43:29;7.60;99.90
19945;DHT22;10134;50.952;6.930;2023-02-24T08:48:55;7.60;99.90
19945;DHT22;10134;50.952;6.930;2023-02-24T08:54:00;7.70;99.90
19945;DHT22;10134;50.952;6.930;2023-02-24T08:56:30;7.70;99.90
19945;DHT22;10134;50.952;6.930;2023-02-24T08:59:03;7.70;99.90
19945;DHT22;10134;50.952;6.930;2023-02-24T09:01:36;7.70;99.90
19945;DHT22;10134;50.952;6.930;2023-02-24T09:04:08;7.70;99.90
19945;DHT22;10134;50.952;6.930;2023-02-24T09:06:49;7.70;99.90
19945;DHT22;10134;50.952;6.930;2023-02-24T09:09:37;7.70;99.90
19945;DHT22;10134;50.952;6.930;2023-02-24T09:12:09;7.70;99.90
19945;DHT22;10134;50.952;6.930;2023-02-24T09:14:49;7.60;99.90
19945;DHT22;10134;50.952;6.930;2023-02-24T09:17:27;7.70;99.90
19945;DHT22;10134;50.952;6.930;2023-02-24T09:20:16;7.70;99.90
19945;DHT22;10134;50.952;6.930;2023-02-24T09:22:55;7.80;99.90
19945;DHT22;10134;50.952;6.930;2023-02-24T09:25:37;7.80;99.90
19945;DHT22;10134;50.952;6.930;2023-02-24T09:28:22;7.80;99.90
19945;DHT22;10134;50.952;6.930;2023-02-24T09:30:58;7.90;99.90
19945;DHT22;10134;50.952;6.930;2023-02-24T09:36:10;7.90;99.90
19945;DHT22;10134;50.952;6.930;2023-02-24T09:38:45;7.90;99.90
19945;DHT22;10134;50.952;6.930;2023-02-24T09:44:24;8.00;99.90
19945;DHT22;10134;50.952;6.930;2023-02-24T09:46:58;8.10;99.90
19945;DHT22;10134;50.952;6.930;2023-02-24T09:49:37;8.00;99.90
19945;DHT22;10134;50.952;6.930;2023-02-24T09:52:15;8.00;99.90
19945;DHT22;10134;50.952;6.930;2023-02-24T09:54:48;7.90;99.90
19945;DHT22;10134;50.952;6.930;2023-02-24T09:57:43;8.00;99.90
19945;DHT22;10134;50.952;6.930;2023-02-24T10:00:33;8.10;99.90
19945;DHT22;10134;50.952;6.930;2023-02-24T10:06:22;8.10;99.90
19945;DHT22;10134;50.952;6.930;2023-02-24T10:09:00;8.10;99.90
19945;DHT22;10134;50.952;6.930;2023-02-24T10:11:50;8.10;99.90
19945;DHT22;10134;50.952;6.930;2023-02-24T10:14:28;8.10;99.90
19945;DHT22;10134;50.952;6.930;2023-02-24T10:17:15;8.10;99.90
19945;DHT22;10134;50.952;6.930;2023-02-24T10:19:51;8.10;99.90
19945;DHT22;10134;50.952;6.930;2023-02-24T10:22:47;8.20;99.90
19945;DHT22;10134;50.952;6.930;2023-02-24T10:25:45;8.20;99.90
19945;DHT22;10134;50.952;6.930;2023-02-24T10:28:41;8.20;99.90
19945;DHT22;10134;50.952;6.930;2023-02-24T10:31:17;8.30;99.90
19945;DHT22;10134;50.952;6.930;2023-02-24T10:33:59;8.20;99.90
19945;DHT22;10134;50.952;6.930;2023-02-24T10:36:29;8.30;99.90
19945;DHT22;10134;50.952;6.930;2023-02-24T10:39:17;8.30;99.90
19945;DHT22;10134;50.952;6.930;2023-02-24T10:42:03;8.30;99.90
19945;DHT22;10134;50.952;6.930;2023-02-24T10:44:46;8.30;99.90
19945;DHT22;10134;50.952;6.930;2023-02-24T10:47:30;8.30;99.90
19945;DHT22;10134;50.952;6.930;2023-02-24T10:49:59;8.30;99.90
19945;DHT22;10134;50.952;6.930;2023-02-24T10:55:45;8.30;99.90
19945;DHT22;10134;50.952;6.930;2023-02-24T10:58:29;8.30;99.90
19945;DHT22;10134;50.952;6.930;2023-02-24T11:01:28;8.40;99.90
19945;DHT22;10134;50.952;6.930;2023-02-24T11:04:35;8.30;99.90
19945;DHT22;10134;50.952;6.930;2023-02-24T11:07:22;8.30;99.90
19945;DHT22;10134;50.952;6.930;2023-02-24T11:12:45;8.30;99.90
19945;DHT22;10134;50.952;6.930;2023-02-24T11:15:49;8.20;99.90
19945;DHT22;10134;50.952;6.930;2023-02-24T11:18:37;8.20;99.90
19945;DHT22;10134;50.952;6.930;2023-02-24T11:21:08;8.10;99.90
19945;DHT22;10134;50.952;6.930;2023-02-24T11:26:17;8.10;99.90
19945;DHT22;10134;50.952;6.930;2023-02-24T11:28:59;8.00;99.90
19945;DHT22;10134;50.952;6.930;2023-02-24T11:36:52;8.10;99.90
19945;DHT22;10134;50.952;6.930;2023-02-24T11:39:37;8.00;99.90
19945;DHT22;10134;50.952;6.930;2023-02-24T11:42:11;8.00;99.90
19945;DHT22;10134;50.952;6.930;2023-02-24T11:47:34;8.00;99.90
19945;DHT22;10134;50.952;6.930;2023-02-24T11:50:29;8.00;99.90
19945;DHT22;10134;50.952;6.930;2023-02-24T11:53:03;8.00;99.90
19945;DHT22;10134;50.952;6.930;2023-02-24T11:55:39;7.90;99.90
19945;DHT22;10134;50.952;6.930;2023-02-24T11:58:23;7.90;99.90
19945;DHT22;10134;50.952;6.930;2023-02-24T12:00:58;7.90;99.90
19945;DHT22;10134;50.952;6.930;2023-02-24T12:04:09;8.00;99.90
19945;DHT22;10134;50.952;6.930;2023-02-24T12:06:58;8.00;99.90
19945;DHT22;10134;50.952;6.930;2023-02-24T12:09:37;7.90;99.90
19945;DHT22;10134;50.952;6.930;2023-02-24T12:12:12;7.80;99.90
19945;DHT22;10134;50.952;6.930;2023-02-24T12:14:50;7.70;99.90
19945;DHT22;10134;50.952;6.930;2023-02-24T12:17:39;7.80;99.90
19945;DHT22;10134;50.952;6.930;2023-02-24T12:20:29;7.80;99.90
19945;DHT22;10134;50.952;6.930;2023-02-24T12:26:06;7.70;99.90
19945;DHT22;10134;50.952;6.930;2023-02-24T12:31:24;7.80;99.90
19945;DHT22;10134;50.952;6.930;2023-02-24T12:34:39;7.80;99.90
19945;DHT22;10134;50.952;6.930;2023-02-24T12:40:28;7.80;99.90
19945;DHT22;10134;50.952;6.930;2023-02-24T12:43:21;7.80;99.90
19945;DHT22;10134;50.952;6.930;2023-02-24T12:45:58;7.70;99.90
19945;DHT22;10134;50.952;6.930;2023-02-24T12:48:34;7.70;99.90
19945;DHT22;10134;50.952;6.930;2023-02-24T12:51:15;7.80;99.90
19945;DHT22;10134;50.952;6.930;2023-02-24T12:53:48;7.70;99.90
19945;DHT22;10134;50.952;6.930;2023-02-24T12:56:22;7.70;99.90
19945;DHT22;10134;50.952;6.930;2023-02-24T12:58:53;7.70;99.90
19945;DHT22;10134;50.952;6.930;2023-02-24T13:01:40;7.60;99.90
19945;DHT22;10134;50.952;6.930;2023-02-24T13:12:14;7.60;99.90
19945;DHT22;10134;50.952;6.930;2023-02-24T13:14:43;7.50;99.90
19945;DHT22;10134;50.952;6.930;2023-02-24T13:19:40;7.50;99.90
19945;DHT22;10134;50.952;6.930;2023-02-24T13:25:09;7.50;99.90
19945;DHT22;10134;50.952;6.930;2023-02-24T13:27:41;7.50;99.90
19945;DHT22;10134;50.952;6.930;2023-02-24T13:32:58;7.50;99.90
19945;DHT22;10134;50.952;6.930;2023-02-24T13:37:54;7.40;99.90
19945;DHT22;10134;50.952;6.930;2023-02-24T13:40:23;7.40;99.90
19945;DHT22;10134;50.952;6.930;2023-02-24T13:45:29;7.40;99.90
19945;DHT22;10134;50.952;6.930;2023-02-24T13:50:58;7.40;99.90
19945;DHT22;10134;50.952;6.930;2023-02-24T13:59:46;7.30;99.90
19945;DHT22;10134;50.952;6.930;2023-02-24T14:02:23;7.30;99.90
19945;DHT22;10134;50.952;6.930;2023-02-24T14:04:55;7.20;99.90
19945;DHT22;10134;50.952;6.930;2023-02-24T14:07:26;7.30;99.90
19945;DHT22;10134;50.952;6.930;2023-02-24T14:10:25;7.20;99.90
19945;DHT22;10134;50.952;6.930;2023-02-24T14:15:33;7.30;99.90
19945;DHT22;10134;50.952;6.930;2023-02-24T14:18:03;7.30;99.90
19945;DHT22;10134;50.952;6.930;2023-02-24T14:20:35;7.20;99.90
19945;DHT22;10134;50.952;6.930;2023-02-24T14:23:27;7.20;99.90
19945;DHT22;10134;50.952;6.930;2023-02-24T14:26:00;7.30;99.90
19945;DHT22;10134;50.952;6.930;2023-02-24T14:28:31;7.30;99.90
19945;DHT22;10134;50.952;6.930;2023-02-24T14:31:11;7.30;99.90
19945;DHT22;10134;50.952;6.930;2023-02-24T14:33:42;7.30;99.90
19945;DHT22;10134;50.952;6.930;2023-02-24T14:36:18;7.20;99.90
19945;DHT22;10134;50.952;6.930;2023-02-24T14:41:41;7.20;99.90
19945;DHT22;10134;50.952;6.930;2023-02-24T14:44:25;7.20;99.90
19945;DHT22;10134;50.952;6.930;2023-02-24T14:46:53;7.30;99.90
19945;DHT22;10134;50.952;6.930;2023-02-24T14:49:29;7.30;99.90
19945;DHT22;10134;50.952;6.930;2023-02-24T14:52:08;7.30;99.90
19945;DHT22;10134;50.952;6.930;2023-02-24T14:54:50;7.30;99.90
19945;DHT22;10134;50.952;6.930;2023-02-24T14:57:26;7.20;99.90
19945;DHT22;10134;50.952;6.930;2023-02-24T14:59:58;7.20;99.90
19945;DHT22;10134;50.952;6.930;2023-02-24T15:02:31;7.20;99.90
19945;DHT22;10134;50.952;6.930;2023-02-24T15:04:59;7.20;99.90
19945;DHT22;10134;50.952;6.930;2023-02-24T15:07:31;7.20;99.90
19945;DHT22;10134;50.952;6.930;2023-02-24T15:10:00;7.20;99.90
19945;DHT22;10134;50.952;6.930;2023-02-24T15:12:34;7.20;99.90
19945;DHT22;10134;50.952;6.930;2023-02-24T15:15:06;7.20;99.90
19945;DHT22;10134;50.952;6.930;2023-02-24T15:17:38;7.30;99.90
19945;DHT22;10134;50.952;6.930;2023-02-24T15:20:26;7.30;99.90
19945;DHT22;10134;50.952;6.930;2023-02-24T15:22:54;7.30;99.90
19945;DHT22;10134;50.952;6.930;2023-02-24T15:25:26;7.30;99.90
19945;DHT22;10134;50.952;6.930;2023-02-24T15:28:24;7.30;99.90
19945;DHT22;10134;50.952;6.930;2023-02-24T15:30:57;7.30;99.90
19945;DHT22;10134;50.952;6.930;2023-02-24T15:33:30;7.30;99.90
19945;DHT22;10134;50.952;6.930;2023-02-24T15:35:58;7.30;99.90
19945;DHT22;10134;50.952;6.930;2023-02-24T15:38:32;7.30;99.90
19945;DHT22;10134;50.952;6.930;2023-02-24T15:41:03;7.30;99.90
19945;DHT22;10134;50.952;6.930;2023-02-24T15:43:35;7.30;99.90
19945;DHT22;10134;50.952;6.930;2023-02-24T15:46:27;7.30;99.90
19945;DHT22;10134;50.952;6.930;2023-02-24T15:48:55;7.20;99.90
19945;DHT22;10134;50.952;6.930;2023-02-24T15:51:37;7.20;99.90
19945;DHT22;10134;50.952;6.930;2023-02-24T15:54:10;7.20;99.90
19945;DHT22;10134;50.952;6.930;2023-02-24T15:56:39;7.20;99.90
19945;DHT22;10134;50.952;6.930;2023-02-24T15:59:18;7.20;99.90
19945;DHT22;10134;50.952;6.930;2023-02-24T16:01:47;7.20;99.90
19945;DHT22;10134;50.952;6.930;2023-02-24T16:04:15;7.20;99.90
19945;DHT22;10134;50.952;6.930;2023-02-24T16:06:45;7.20;99.90
19945;DHT22;10134;50.952;6.930;2023-02-24T16:09:32;7.30;99.90
19945;DHT22;10134;50.952;6.930;2023-02-24T16:12:21;7.30;99.90
19945;DHT22;10134;50.952;6.930;2023-02-24T16:14:50;7.30;99.90
19945;DHT22;10134;50.952;6.930;2023-02-24T16:19:57;7.40;99.90
19945;DHT22;10134;50.952;6.930;2023-02-24T16:22:26;7.40;99.90
19945;DHT22;10134;50.952;6.930;2023-02-24T16:24:53;7.40;99.90
19945;DHT22;10134;50.952;6.930;2023-02-24T16:27:22;7.40;99.90
19945;DHT22;10134;50.952;6.930;2023-02-24T16:29:49;7.30;99.90
19945;DHT22;10134;50.952;6.930;2023-02-24T16:32:18;7.40;99.90
19945;DHT22;10134;50.952;6.930;2023-02-24T16:34:48;7.40;99.90
19945;DHT22;10134;50.952;6.930;2023-02-24T16:37:34;7.40;99.90
19945;DHT22;10134;50.952;6.930;2023-02-24T16:40:02;7.30;99.90
19945;DHT22;10134;50.952;6.930;2023-02-24T16:42:36;7.40;99.90
19945;DHT22;10134;50.952;6.930;2023-02-24T16:45:04;7.40;99.90
19945;DHT22;10134;50.952;6.930;2023-02-24T16:47:32;7.40;99.90
19945;DHT22;10134;50.952;6.930;2023-02-24T16:50:00;7.40;99.90
19945;DHT22;10134;50.952;6.930;2023-02-24T16:52:28;7.40;99.90
19945;DHT22;10134;50.952;6.930;2023-02-24T16:54:55;7.40;99.90
19945;DHT22;10134;50.952;6.930;2023-02-24T16:57:23;7.40;99.90
19945;DHT22;10134;50.952;6.930;2023-02-24T16:59:51;7.40;99.90
19945;DHT22;10134;50.952;6.930;2023-02-24T17:02:22;7.40;99.90
19945;DHT22;10134;50.952;6.930;2023-02-24T17:04:51;7.40;99.90
19945;DHT22;10134;50.952;6.930;2023-02-24T17:07:18;7.40;99.90
19945;DHT22;10134;50.952;6.930;2023-02-24T17:09:47;7.40;99.90
19945;DHT22;10134;50.952;6.930;2023-02-24T17:12:16;7.40;99.90
19945;DHT22;10134;50.952;6.930;2023-02-24T17:14:48;7.40;99.90
19945;DHT22;10134;50.952;6.930;2023-02-24T17:17:15;7.40;99.90
19945;DHT22;10134;50.952;6.930;2023-02-24T17:19:42;7.40;99.90
19945;DHT22;10134;50.952;6.930;2023-02-24T17:22:10;7.40;99.90
19945;DHT22;10134;50.952;6.930;2023-02-24T17:24:37;7.50;99.90
19945;DHT22;10134;50.952;6.930;2023-02-24T17:27:04;7.50;99.90
19945;DHT22;10134;50.952;6.930;2023-02-24T17:29:33;7.50;99.90
19945;DHT22;10134;50.952;6.930;2023-02-24T17:32:01;7.50;99.90
19945;DHT22;10134;50.952;6.930;2023-02-24T17:34:28;7.50;99.90
19945;DHT22;10134;50.952;6.930;2023-02-24T17:36:56;7.50;99.90
19945;DHT22;10134;50.952;6.930;2023-02-24T17:39:23;7.40;99.90
19945;DHT22;10134;50.952;6.930;2023-02-24T17:41:50;7.40;99.90
19945;DHT22;10134;50.952;6.930;2023-02-24T17:44:18;7.40;99.90
19945;DHT22;10134;50.952;6.930;2023-02-24T17:46:45;7.40;99.90
19945;DHT22;10134;50.952;6.930;2023-02-24T17:49:12;7.40;99.90
19945;DHT22;10134;50.952;6.930;2023-02-24T17:51:40;7.40;99.90
19945;DHT22;10134;50.952;6.930;2023-02-24T17:54:07;7.40;99.90
19945;DHT22;10134;50.952;6.930;2023-02-24T17:56:34;7.50;99.90
19945;DHT22;10134;50.952;6.930;2023-02-24T17:59:02;7.50;99.90
19945;DHT22;10134;50.952;6.930;2023-02-24T18:01:29;7.50;99.90
19945;DHT22;10134;50.952;6.930;2023-02-24T18:03:56;7.50;99.90
19945;DHT22;10134;50.952;6.930;2023-02-24T18:06:24;7.50;99.90
19945;DHT22;10134;50.952;6.930;2023-02-24T18:08:52;7.50;99.90
19945;DHT22;10134;50.952;6.930;2023-02-24T18:11:19;7.50;99.90
19945;DHT22;10134;50.952;6.930;2023-02-24T18:13:47;7.50;99.90
19945;DHT22;10134;50.952;6.930;2023-02-24T18:16:17;7.50;99.90
19945;DHT22;10134;50.952;6.930;2023-02-24T18:18:44;7.40;99.90
19945;DHT22;10134;50.952;6.930;2023-02-24T18:21:12;7.30;99.90